Terminal Aerodrome Forecast
Issued by NWS

Home | Current Version | Previous Version | Text Only | Print | Product List | Glossary On
Versions: 1 2 3 4 5 6 7 8 9 10 11 12 13 14 15 16 17 18 19 20 21 22 23 24 25
000
FTUS44 KSJT 231100 RRA
TAFBBD
TAF
KBBD 231148Z 2312/2412 15011KT 6SM -SHRA BR BKN040
      TEMPO 2312/2314 4SM SHRA BR BKN035
     FM231600 15013G22KT 5SM -SHRA VCTS BKN025CB
     FM232200 14013G20KT 5SM -TSRA BKN025CB
     FM240200 13012KT 5SM -SHRA VCTS OVC025CB=

USA.gov is the U.S. government's official web portal to all federal, state and local government web resources and services.